Time;durP1;ratioP1;P1;durP2;ratioP2;P2;SDS_P1;SDS_P2;PMS_P1;PMS_P2;Temp;Humidity;BMP_temperature;BMP_pressure;BME280_temperature;BME280_humidity;BME280_pressure;Samples;Min_cycle;Max_cycle;Signal;HPM_P1;HPM_P2
2022/10/16 00:01:48;;;;;;;11.50;1.88;;;12.30;99.90;;;;;;5026005;28;20049;-50
2022/10/16 00:04:14;;;;;;;10.77;2.47;;;12.20;99.90;;;;;;5024720;28;20459;-49
2022/10/16 00:06:40;;;;;;;11.18;1.95;;;12.30;99.90;;;;;;5021981;28;20148;-48
2022/10/16 00:09:06;;;;;;;13.05;2.25;;;12.40;99.90;;;;;;5025848;28;20037;-50
2022/10/16 00:11:36;;;;;;;8.50;1.88;;;12.40;99.90;;;;;;5020450;28;20038;-49
2022/10/16 00:14:04;;;;;;;8.20;1.65;;;12.30;99.90;;;;;;5025241;28;20635;-52
2022/10/16 00:16:29;;;;;;;9.93;1.92;;;12.20;99.90;;;;;;5025241;28;20442;-48
2022/10/16 00:18:55;;;;;;;9.18;1.83;;;12.20;99.90;;;;;;5023774;28;20041;-52
2022/10/16 00:21:27;;;;;;;9.15;1.75;;;12.20;99.90;;;;;;5025169;28;20049;-47
2022/10/16 00:23:55;;;;;;;11.18;1.88;;;12.10;99.90;;;;;;5019602;28;20558;-47
2022/10/16 00:26:21;;;;;;;9.27;1.63;;;12.10;99.90;;;;;;5023257;28;20444;-50
2022/10/16 00:28:49;;;;;;;9.13;1.70;;;12.10;99.90;;;;;;5021981;28;20089;-51
2022/10/16 00:31:15;;;;;;;9.68;2.20;;;12.10;99.90;;;;;;5024727;28;20041;-49
2022/10/16 00:33:41;;;;;;;7.97;1.67;;;12.20;99.90;;;;;;5025903;28;20124;-50
2022/10/16 00:36:10;;;;;;;8.73;1.42;;;12.20;99.90;;;;;;5023574;28;20158;-49
2022/10/16 00:38:37;;;;;;;7.30;1.70;;;13.10;99.90;;;;;;5023219;28;20053;-50
2022/10/16 00:41:03;;;;;;;5.57;1.40;;;12.20;99.90;;;;;;5024429;28;20056;-49
2022/10/16 00:43:32;;;;;;;8.48;1.73;;;12.10;99.90;;;;;;5023087;28;20132;-52
2022/10/16 00:45:58;;;;;;;7.95;1.55;;;12.10;99.90;;;;;;5022035;28;20098;-51
2022/10/16 00:48:24;;;;;;;5.43;1.70;;;12.10;99.90;;;;;;5026277;28;20072;-48
2022/10/16 00:50:50;;;;;;;9.50;1.70;;;13.50;99.90;;;;;;5023950;28;20124;-50
2022/10/16 00:53:17;;;;;;;7.05;1.65;;;12.10;99.90;;;;;;5029100;28;20133;-50
2022/10/16 00:55:43;;;;;;;6.88;1.60;;;12.20;99.90;;;;;;5029069;28;20033;-47
2022/10/16 00:58:09;;;;;;;7.00;1.90;;;12.40;99.90;;;;;;5026097;28;20044;-49
2022/10/16 01:00:35;;;;;;;12.35;1.70;;;12.20;99.90;;;;;;5029639;28;20045;-51
2022/10/16 01:03:02;;;;;;;8.80;1.63;;;12.30;99.90;;;;;;5028631;28;20038;-50
2022/10/16 01:06:14;;;;;;;9.80;1.92;;;12.20;99.90;;;;;;5029496;28;20045;-50
2022/10/16 01:09:01;;;;;;;4.97;2.22;;;12.40;99.90;;;;;;5026586;28;20056;-49
2022/10/16 01:11:52;;;;;;;10.40;1.60;;;12.60;99.90;;;;;;5024938;28;20121;-49
2022/10/16 01:14:30;;;;;;;9.05;1.40;;;12.10;99.90;;;;;;5027706;28;20143;-48
2022/10/16 01:17:06;;;;;;;11.02;1.77;;;12.30;99.90;;;;;;5026148;28;20037;-49
2022/10/16 01:19:51;;;;;;;7.85;2.13;;;12.30;99.90;;;;;;5023500;28;20097;-49
2022/10/16 01:22:17;;;;;;;7.43;1.60;;;12.20;99.90;;;;;;5024649;28;20458;-50
2022/10/16 01:24:49;;;;;;;7.03;1.55;;;12.30;99.90;;;;;;5025289;28;20097;-52
2022/10/16 01:27:18;;;;;;;5.82;1.75;;;13.90;99.90;;;;;;5025697;28;20034;-51
2022/10/16 01:30:01;;;;;;;7.13;1.42;;;12.30;99.90;;;;;;5027171;28;20044;-48
2022/10/16 01:32:37;;;;;;;7.97;1.50;;;12.50;99.90;;;;;;5025747;28;20418;-46
2022/10/16 01:35:14;;;;;;;5.22;1.50;;;12.30;99.90;;;;;;5026388;28;20105;-52
2022/10/16 01:38:04;;;;;;;4.00;1.33;;;12.80;99.90;;;;;;5022402;28;20113;-48
2022/10/16 01:40:33;;;;;;;8.75;1.42;;;12.40;99.90;;;;;;5022429;28;20406;-48
2022/10/16 01:43:08;;;;;;;8.07;1.60;;;12.40;99.90;;;;;;5025164;28;20704;-49
2022/10/16 01:45:35;;;;;;;8.25;1.80;;;12.50;99.90;;;;;;5025457;28;20040;-52
2022/10/16 01:48:05;;;;;;;9.35;1.70;;;12.60;99.90;;;;;;5025765;28;20037;-51
2022/10/16 01:50:35;;;;;;;5.30;1.58;;;12.50;99.90;;;;;;5026204;28;20072;-50
2022/10/16 01:53:03;;;;;;;7.47;1.65;;;12.40;99.90;;;;;;5026122;28;20037;-53
2022/10/16 01:55:36;;;;;;;9.38;1.77;;;12.40;99.90;;;;;;5025993;28;20060;-49
2022/10/16 01:58:05;;;;;;;8.15;1.60;;;12.70;99.90;;;;;;5024696;28;20044;-48
2022/10/16 02:00:31;;;;;;;7.47;1.92;;;12.50;99.90;;;;;;5024142;28;20356;-50
2022/10/16 02:03:01;;;;;;;7.70;1.98;;;12.50;99.90;;;;;;5028120;28;20502;-48
2022/10/16 02:05:55;;;;;;;6.22;1.70;;;12.50;99.90;;;;;;5027385;28;20075;-48
2022/10/16 02:08:24;;;;;;;7.80;1.90;;;12.60;99.90;;;;;;5027128;28;20080;-48
2022/10/16 02:10:50;;;;;;;8.98;1.67;;;12.50;99.90;;;;;;5028464;28;20064;-47
2022/10/16 02:13:27;;;;;;;8.00;1.75;;;12.70;99.90;;;;;;5026968;28;20128;-47
2022/10/16 02:15:53;;;;;;;6.30;1.50;;;14.60;99.90;;;;;;5026136;28;20045;-48
2022/10/16 02:18:19;;;;;;;5.40;1.63;;;13.50;99.90;;;;;;5025052;28;20053;-47
2022/10/16 02:21:16;;;;;;;5.65;1.70;;;12.50;99.90;;;;;;5026587;28;20041;-51
2022/10/16 02:24:04;;;;;;;4.70;1.77;;;12.80;99.90;;;;;;5029605;28;20109;-45
2022/10/16 02:26:55;;;;;;;8.88;2.17;;;12.50;99.90;;;;;;5025680;28;20049;-50
2022/10/16 02:29:25;;;;;;;4.78;1.25;;;14.90;99.90;;;;;;5026466;28;20053;-48
2022/10/16 02:31:56;;;;;;;5.40;1.88;;;12.70;99.90;;;;;;5022159;28;20045;-51
2022/10/16 02:34:24;;;;;;;4.57;1.33;;;12.70;99.90;;;;;;5025836;28;20049;-48
2022/10/16 02:36:52;;;;;;;3.67;1.20;;;12.80;99.90;;;;;;5024465;28;20287;-50
2022/10/16 02:39:19;;;;;;;5.07;1.45;;;13.30;99.90;;;;;;5026393;28;20306;-52
2022/10/16 02:41:45;;;;;;;6.63;1.63;;;12.60;99.90;;;;;;5024800;28;20048;-51
2022/10/16 02:44:11;;;;;;;8.30;1.80;;;12.60;99.90;;;;;;5024500;28;20037;-47
2022/10/16 02:46:37;;;;;;;5.65;1.50;;;12.50;99.90;;;;;;5027849;28;20527;-48
2022/10/16 02:49:02;;;;;;;11.52;2.00;;;12.90;99.90;;;;;;5025376;28;20129;-50
2022/10/16 02:51:28;;;;;;;5.65;1.52;;;12.70;99.90;;;;;;5019116;28;20046;-50
2022/10/16 02:53:54;;;;;;;4.63;1.65;;;12.50;99.90;;;;;;5024547;28;20651;-49
2022/10/16 02:56:19;;;;;;;5.85;1.40;;;12.80;99.90;;;;;;5024891;28;20093;-49
2022/10/16 02:58:45;;;;;;;3.78;1.33;;;12.50;99.90;;;;;;5025059;28;20038;-49
2022/10/16 03:01:12;;;;;;;5.13;1.70;;;12.50;99.90;;;;;;5023978;28;20401;-50
2022/10/16 03:03:38;;;;;;;5.03;1.60;;;12.50;99.90;;;;;;5024432;28;20119;-50
2022/10/16 03:06:05;;;;;;;4.82;1.90;;;12.60;99.90;;;;;;5023902;28;20083;-49
2022/10/16 03:08:31;;;;;;;5.90;1.50;;;12.60;99.90;;;;;;5025582;28;20122;-51
2022/10/16 03:10:57;;;;;;;4.35;1.27;;;12.30;99.90;;;;;;5026287;28;20837;-48
2022/10/16 03:13:23;;;;;;;4.78;1.42;;;12.70;99.90;;;;;;5025412;28;20057;-48
2022/10/16 03:15:49;;;;;;;8.65;1.70;;;12.60;99.90;;;;;;5027267;28;20051;-51
2022/10/16 03:18:15;;;;;;;9.00;1.80;;;12.30;99.90;;;;;;5022708;28;20090;-52
2022/10/16 03:20:40;;;;;;;3.20;1.52;;;12.40;99.90;;;;;;5026077;28;20050;-49
2022/10/16 03:23:07;;;;;;;3.80;1.38;;;12.60;99.90;;;;;;5026238;28;20143;-51
2022/10/16 03:25:33;;;;;;;5.15;1.52;;;12.50;99.90;;;;;;5020965;28;20087;-49
2022/10/16 03:27:59;;;;;;;6.82;2.25;;;13.20;99.90;;;;;;5027263;28;21650;-50
2022/10/16 03:30:25;;;;;;;10.07;1.70;;;12.30;99.90;;;;;;5025585;28;20746;-47
2022/10/16 03:32:53;;;;;;;4.95;1.60;;;12.30;99.90;;;;;;5026324;28;20045;-51
2022/10/16 03:35:23;;;;;;;4.25;1.50;;;12.40;99.90;;;;;;5024559;28;20052;-46
2022/10/16 03:37:49;;;;;;;4.75;1.50;;;12.40;99.90;;;;;;5023470;28;20060;-50
2022/10/16 03:40:16;;;;;;;5.13;1.52;;;12.40;99.90;;;;;;5026334;28;20477;-50
2022/10/16 03:42:44;;;;;;;7.07;1.60;;;12.30;99.90;;;;;;5027126;28;20075;-52
2022/10/16 03:45:11;;;;;;;5.85;1.50;;;12.60;99.90;;;;;;5028930;28;20040;-50
2022/10/16 03:47:37;;;;;;;4.57;1.40;;;12.50;99.90;;;;;;5021274;28;20034;-51
2022/10/16 03:50:03;;;;;;;6.95;2.08;;;12.40;99.90;;;;;;5026016;28;20041;-49
2022/10/16 03:52:29;;;;;;;3.88;1.27;;;12.40;99.90;;;;;;5023249;28;20633;-50
2022/10/16 03:54:55;;;;;;;7.93;1.77;;;12.20;99.90;;;;;;5024632;28;20128;-50
2022/10/16 03:57:21;;;;;;;6.47;1.73;;;12.10;99.90;;;;;;5025836;28;20080;-48
2022/10/16 03:59:47;;;;;;;8.00;1.65;;;12.90;99.90;;;;;;5023235;28;20315;-50
2022/10/16 04:02:12;;;;;;;5.13;1.63;;;12.10;99.90;;;;;;5025822;28;20105;-52
2022/10/16 04:04:38;;;;;;;5.30;1.45;;;12.80;99.90;;;;;;5023279;28;20037;-52
2022/10/16 04:07:04;;;;;;;6.60;1.80;;;12.20;99.90;;;;;;5025109;28;21252;-49
2022/10/16 04:09:30;;;;;;;4.97;1.38;;;13.00;99.90;;;;;;5022815;28;20576;-47
2022/10/16 04:11:56;;;;;;;3.75;1.77;;;12.10;99.90;;;;;;5025456;28;20052;-49
2022/10/16 04:14:21;;;;;;;6.20;1.80;;;12.00;99.90;;;;;;5026100;28;20637;-47
2022/10/16 04:16:47;;;;;;;5.88;1.67;;;11.90;99.90;;;;;;5025635;28;20049;-49
2022/10/16 04:19:13;;;;;;;3.47;1.30;;;12.60;99.90;;;;;;5027659;28;20041;-49
2022/10/16 04:21:39;;;;;;;5.60;1.50;;;12.20;99.90;;;;;;5021912;28;20233;-46
2022/10/16 04:24:04;;;;;;;5.55;1.42;;;12.10;99.90;;;;;;5022908;28;20057;-50
2022/10/16 04:26:30;;;;;;;5.20;1.67;;;13.90;99.90;;;;;;5024339;28;20113;-47
2022/10/16 04:28:56;;;;;;;6.32;1.50;;;13.90;99.90;;;;;;5022899;28;20037;-47
2022/10/16 04:31:22;;;;;;;10.23;1.83;;;12.20;99.90;;;;;;5022507;28;20055;-51
2022/10/16 04:33:48;;;;;;;5.70;1.65;;;12.20;99.90;;;;;;5023209;28;20444;-48
2022/10/16 04:36:13;;;;;;;5.82;1.63;;;12.30;99.90;;;;;;5026369;28;20045;-49
2022/10/16 04:38:40;;;;;;;7.32;1.98;;;13.10;99.90;;;;;;5022253;28;20049;-48
2022/10/16 04:41:06;;;;;;;5.43;1.75;;;13.20;99.90;;;;;;5023541;28;20093;-52
2022/10/16 04:43:33;;;;;;;6.10;1.90;;;12.50;99.90;;;;;;5022835;28;20121;-50
2022/10/16 04:45:59;;;;;;;5.28;1.73;;;12.30;99.90;;;;;;5024350;28;20041;-47
2022/10/16 04:48:25;;;;;;;11.05;1.88;;;12.40;99.90;;;;;;5026536;28;20053;-46
2022/10/16 04:50:51;;;;;;;7.15;2.25;;;12.60;99.90;;;;;;5025919;28;20037;-48
2022/10/16 04:53:17;;;;;;;5.20;1.70;;;12.40;99.90;;;;;;5025601;28;20067;-49
2022/10/16 04:55:43;;;;;;;7.32;1.70;;;12.30;99.90;;;;;;5021705;28;20033;-46
2022/10/16 04:58:09;;;;;;;5.18;1.70;;;12.60;99.90;;;;;;5027329;28;20048;-47
2022/10/16 05:00:35;;;;;;;7.20;2.03;;;12.30;99.90;;;;;;5024142;28;20037;-51
2022/10/16 05:03:05;;;;;;;5.82;1.70;;;12.50;99.90;;;;;;5021744;28;20033;-49
2022/10/16 05:05:31;;;;;;;6.68;2.15;;;12.60;99.90;;;;;;5024192;28;20494;-48
2022/10/16 05:07:57;;;;;;;7.45;2.10;;;13.50;99.90;;;;;;5023153;28;20056;-48
2022/10/16 05:10:22;;;;;;;7.45;2.08;;;12.50;99.90;;;;;;5011557;28;20533;-51
2022/10/16 05:12:48;;;;;;;4.63;1.73;;;12.50;99.90;;;;;;5016512;28;21064;-46
2022/10/16 05:15:14;;;;;;;7.57;2.15;;;13.50;99.90;;;;;;5012672;28;20092;-49
2022/10/16 05:17:40;;;;;;;6.13;2.42;;;12.30;99.90;;;;;;5016760;28;20041;-48
2022/10/16 05:20:06;;;;;;;5.40;2.20;;;12.40;99.90;;;;;;5023390;28;20261;-46
2022/10/16 05:22:32;;;;;;;4.68;1.77;;;12.50;99.90;;;;;;5020097;28;20037;-49
2022/10/16 05:24:57;;;;;;;5.18;1.70;;;12.40;99.90;;;;;;5021720;28;20302;-51
2022/10/16 05:27:23;;;;;;;6.70;2.47;;;12.50;99.90;;;;;;5022566;28;20047;-47
2022/10/16 05:29:49;;;;;;;6.85;2.30;;;13.50;99.90;;;;;;5023708;28;20071;-47
2022/10/16 05:32:16;;;;;;;4.32;1.98;;;13.40;99.90;;;;;;5019742;28;20041;-49
2022/10/16 05:34:42;;;;;;;5.47;1.80;;;12.40;99.90;;;;;;5020148;28;20088;-46
2022/10/16 05:37:09;;;;;;;5.65;2.20;;;12.30;99.90;;;;;;5024600;28;20438;-50
2022/10/16 05:39:36;;;;;;;6.72;2.45;;;12.30;99.90;;;;;;5022029;28;20473;-50
2022/10/16 05:42:02;;;;;;;7.60;2.55;;;12.70;99.90;;;;;;5029938;28;20033;-49
2022/10/16 05:44:28;;;;;;;8.70;2.17;;;12.40;99.90;;;;;;5024827;28;20102;-46
2022/10/16 05:46:54;;;;;;;10.40;2.50;;;12.40;99.90;;;;;;5025138;28;20041;-49
2022/10/16 05:49:19;;;;;;;8.88;2.08;;;12.80;99.90;;;;;;5022750;28;20052;-50
2022/10/16 05:51:45;;;;;;;7.47;2.25;;;12.50;99.90;;;;;;5024873;28;20033;-48
2022/10/16 05:54:11;;;;;;;6.57;2.22;;;12.50;99.90;;;;;;5029007;28;20072;-51
2022/10/16 05:56:37;;;;;;;6.25;2.50;;;12.50;99.90;;;;;;5026566;28;20444;-47
2022/10/16 05:59:05;;;;;;;8.13;2.67;;;12.90;99.90;;;;;;5022175;28;20094;-50
2022/10/16 06:01:31;;;;;;;9.73;3.50;;;12.30;99.90;;;;;;5026827;28;20513;-49
2022/10/16 06:03:57;;;;;;;5.93;2.35;;;12.20;99.90;;;;;;5025578;28;20095;-46
2022/10/16 06:06:25;;;;;;;7.50;2.40;;;13.90;99.90;;;;;;5024923;28;20528;-46
2022/10/16 06:08:52;;;;;;;7.45;2.42;;;12.30;99.90;;;;;;5025554;28;20786;-46
2022/10/16 06:11:21;;;;;;;5.45;2.40;;;12.30;99.90;;;;;;5025852;28;20045;-49
2022/10/16 06:13:51;;;;;;;11.40;3.28;;;12.10;99.90;;;;;;5026765;28;20124;-46
2022/10/16 06:16:17;;;;;;;6.88;2.53;;;12.40;99.90;;;;;;5025321;28;20037;-46
2022/10/16 06:18:43;;;;;;;9.55;2.88;;;12.40;99.90;;;;;;5025616;28;20044;-50
2022/10/16 06:21:12;;;;;;;11.40;3.05;;;12.40;99.90;;;;;;5028110;28;20037;-47
2022/10/16 06:23:37;;;;;;;9.93;2.58;;;12.80;99.90;;;;;;5027337;28;20048;-46
2022/10/16 06:26:08;;;;;;;5.30;2.40;;;12.40;99.90;;;;;;5028618;28;20040;-47
2022/10/16 06:28:34;;;;;;;5.53;2.33;;;12.40;99.90;;;;;;5026394;28;20124;-50
2022/10/16 06:31:01;;;;;;;9.90;3.13;;;12.40;99.90;;;;;;5026293;28;20743;-49
2022/10/16 06:33:27;;;;;;;7.18;2.78;;;12.50;99.90;;;;;;5024803;28;20463;-49
2022/10/16 06:35:53;;;;;;;8.40;2.80;;;12.60;99.90;;;;;;5024848;28;20051;-51
2022/10/16 06:38:18;;;;;;;5.90;2.60;;;12.40;99.90;;;;;;5023626;28;20061;-50
2022/10/16 06:40:44;;;;;;;7.95;3.15;;;12.40;99.90;;;;;;5024750;28;20033;-47
2022/10/16 06:43:10;;;;;;;7.40;2.40;;;12.60;99.90;;;;;;5026053;28;20045;-46
2022/10/16 06:45:35;;;;;;;9.20;2.38;;;11.40;99.90;;;;;;5023874;28;20532;-48
2022/10/16 06:48:01;;;;;;;8.57;2.40;;;12.60;99.90;;;;;;5024467;28;20097;-46
2022/10/16 06:50:27;;;;;;;7.20;2.30;;;12.70;99.90;;;;;;5026078;28;20041;-50
2022/10/16 06:52:52;;;;;;;9.85;2.28;;;12.70;99.90;;;;;;5025284;28;20089;-49
2022/10/16 06:55:18;;;;;;;6.93;2.30;;;12.50;99.90;;;;;;5026141;28;20053;-48
2022/10/16 06:57:46;;;;;;;8.07;2.15;;;12.50;99.90;;;;;;5026937;28;20045;-46
2022/10/16 07:00:12;;;;;;;7.60;2.70;;;12.60;99.90;;;;;;5023695;28;20406;-46
2022/10/16 07:02:38;;;;;;;6.80;2.40;;;12.70;99.90;;;;;;5023006;28;20033;-47
2022/10/16 07:05:04;;;;;;;8.18;2.22;;;12.70;99.90;;;;;;5027935;28;20126;-46
2022/10/16 07:07:29;;;;;;;8.15;2.40;;;12.60;99.90;;;;;;5026064;28;20128;-48
2022/10/16 07:09:55;;;;;;;8.80;2.60;;;12.90;99.90;;;;;;5024617;28;20482;-49
2022/10/16 07:12:21;;;;;;;7.80;2.40;;;12.70;99.90;;;;;;5027353;28;20159;-46
2022/10/16 07:14:47;;;;;;;9.00;2.08;;;12.70;99.90;;;;;;5023809;28;20037;-46
2022/10/16 07:17:12;;;;;;;6.85;2.05;;;14.40;99.90;;;;;;5025742;28;20411;-48
2022/10/16 07:19:38;;;;;;;5.13;2.10;;;12.80;99.90;;;;;;5027068;28;20037;-46
2022/10/16 07:22:04;;;;;;;9.10;2.42;;;12.90;99.90;;;;;;5023684;28;20044;-47
2022/10/16 07:24:30;;;;;;;11.38;2.33;;;12.70;99.90;;;;;;5025811;28;20064;-48
2022/10/16 07:26:56;;;;;;;9.32;2.30;;;14.50;99.90;;;;;;5020331;28;20889;-46
2022/10/16 07:29:21;;;;;;;9.43;2.30;;;12.50;99.90;;;;;;5024281;28;20111;-46
2022/10/16 07:31:48;;;;;;;7.43;2.20;;;12.90;99.90;;;;;;5024871;28;20488;-47
2022/10/16 07:34:16;;;;;;;6.05;2.17;;;12.60;99.90;;;;;;5025692;28;20052;-46
2022/10/16 07:36:41;;;;;;;6.78;2.17;;;12.60;99.90;;;;;;5024583;28;20502;-47
2022/10/16 07:39:08;;;;;;;7.45;2.47;;;12.60;99.90;;;;;;5027198;28;20064;-46
2022/10/16 07:41:36;;;;;;;7.03;2.72;;;12.50;99.90;;;;;;5023502;28;20045;-50
2022/10/16 07:44:03;;;;;;;8.98;2.90;;;12.70;99.90;;;;;;5024857;28;20037;-49
2022/10/16 07:46:29;;;;;;;6.80;2.38;;;12.50;99.90;;;;;;5024744;28;20044;-46
2022/10/16 07:48:56;;;;;;;7.53;2.72;;;12.40;99.90;;;;;;5020948;28;20179;-46
2022/10/16 07:51:23;;;;;;;10.35;2.83;;;12.50;99.90;;;;;;5022319;28;20108;-47
2022/10/16 07:53:50;;;;;;;7.32;2.60;;;12.40;99.90;;;;;;5026167;28;20057;-47
2022/10/16 07:56:17;;;;;;;8.75;3.10;;;12.50;99.90;;;;;;5020612;28;20377;-46
2022/10/16 07:58:43;;;;;;;7.82;2.75;;;12.50;99.90;;;;;;5017696;28;20052;-47
2022/10/16 08:01:12;;;;;;;7.10;2.70;;;12.60;99.90;;;;;;5020671;28;20123;-46
2022/10/16 08:03:41;;;;;;;4.40;2.30;;;12.60;99.90;;;;;;5023764;28;20083;-46
2022/10/16 08:06:07;;;;;;;6.15;3.00;;;12.80;99.90;;;;;;5024033;28;20054;-46
2022/10/16 08:08:33;;;;;;;6.32;2.70;;;12.90;99.90;;;;;;5023699;28;20097;-50
2022/10/16 08:10:59;;;;;;;7.95;2.60;;;12.90;99.90;;;;;;5025256;28;20041;-49
2022/10/16 08:13:24;;;;;;;6.28;2.45;;;13.10;99.90;;;;;;5025063;28;20609;-48
2022/10/16 08:15:50;;;;;;;4.60;2.20;;;13.10;99.90;;;;;;5022929;28;20075;-45
2022/10/16 08:18:16;;;;;;;7.25;2.65;;;13.50;99.90;;;;;;5020948;28;20041;-49
2022/10/16 08:20:43;;;;;;;7.60;1.90;;;13.50;99.90;;;;;;5024137;28;20152;-46
2022/10/16 08:23:11;;;;;;;9.48;3.30;;;13.40;99.90;;;;;;5022262;28;20045;-51
2022/10/16 08:25:37;;;;;;;7.50;2.20;;;13.60;99.90;;;;;;5024684;28;20579;-47
2022/10/16 08:28:08;;;;;;;9.27;2.38;;;15.90;99.90;;;;;;5022474;28;20387;-51
2022/10/16 08:30:34;;;;;;;7.10;2.05;;;15.80;99.90;;;;;;5024888;28;20583;-47
2022/10/16 08:33:01;;;;;;;7.68;1.83;;;14.00;99.90;;;;;;5022064;28;20128;-46
2022/10/16 08:35:27;;;;;;;8.88;1.88;;;14.20;99.90;;;;;;5023835;28;20041;-46
2022/10/16 08:37:53;;;;;;;6.80;1.80;;;14.70;99.90;;;;;;5025434;28;20415;-47
2022/10/16 08:40:23;;;;;;;6.80;1.67;;;15.10;99.90;;;;;;5025621;28;20067;-51
2022/10/16 08:43:19;;;;;;;6.28;1.50;;;15.00;98.70;;;;;;5027672;28;20037;-46
2022/10/16 08:46:14;;;;;;;6.82;1.60;;;14.90;90.70;;;;;;5025859;28;20041;-51
2022/10/16 08:48:45;;;;;;;8.23;1.80;;;15.10;96.40;;;;;;5022281;28;20072;-48
2022/10/16 08:51:19;;;;;;;4.88;1.50;;;15.20;95.80;;;;;;5022558;28;20731;-48
2022/10/16 08:53:52;;;;;;;7.43;1.50;;;15.10;93.80;;;;;;5022906;28;20506;-48
2022/10/16 08:56:18;;;;;;;7.15;1.58;;;15.00;93.90;;;;;;5020574;28;20110;-46
2022/10/16 08:58:46;;;;;;;5.13;1.27;;;15.00;93.50;;;;;;5021273;28;20041;-46
2022/10/16 09:01:15;;;;;;;6.35;1.48;;;14.90;94.90;;;;;;5023739;28;20128;-47
2022/10/16 09:04:08;;;;;;;12.05;1.83;;;14.90;96.60;;;;;;5024964;28;20115;-48
2022/10/16 09:06:45;;;;;;;8.30;1.75;;;14.90;96.00;;;;;;5021482;28;20079;-47
2022/10/16 09:09:38;;;;;;;9.60;2.22;;;14.80;96.10;;;;;;5023225;28;20078;-50
2022/10/16 09:12:08;;;;;;;10.55;2.22;;;14.60;92.40;;;;;;4996493;28;20060;-51
2022/10/16 09:14:56;;;;;;;11.05;2.28;;;14.70;97.40;;;;;;5025279;28;20458;-49
2022/10/16 09:17:44;;;;;;;10.30;1.85;;;14.90;98.10;;;;;;5027093;28;20240;-50
2022/10/16 09:20:29;;;;;;;7.57;1.88;;;14.80;98.60;;;;;;5024318;28;20048;-46
2022/10/16 09:23:13;;;;;;;9.25;2.10;;;15.00;96.90;;;;;;5023060;28;20049;-47
2022/10/16 09:25:41;;;;;;;11.32;1.60;;;15.10;95.90;;;;;;5025501;28;20827;-46
2022/10/16 09:28:09;;;;;;;8.35;1.58;;;15.10;93.90;;;;;;5024285;28;20052;-47
2022/10/16 09:30:35;;;;;;;11.32;1.85;;;15.10;96.10;;;;;;5027353;28;20045;-48
2022/10/16 09:33:01;;;;;;;9.98;1.55;;;14.90;90.50;;;;;;5026581;28;20774;-47
2022/10/16 09:35:35;;;;;;;9.43;1.55;;;14.90;93.20;;;;;;5021977;28;20038;-46
2022/10/16 09:38:01;;;;;;;12.32;1.95;;;14.90;95.00;;;;;;5024239;28;20468;-47
2022/10/16 09:40:31;;;;;;;9.75;1.63;;;15.00;90.50;;;;;;5026493;28;20162;-46
2022/10/16 09:43:18;;;;;;;12.82;1.90;;;15.20;93.00;;;;;;5025188;28;20056;-46
2022/10/16 09:45:54;;;;;;;12.40;2.13;;;15.00;91.40;;;;;;5025321;28;20045;-49
2022/10/16 09:48:20;;;;;;;17.10;2.40;;;14.90;88.50;;;;;;5023683;28;20033;-50
2022/10/16 09:50:56;;;;;;;9.52;2.15;;;15.10;85.90;;;;;;5029920;28;20638;-47
2022/10/16 09:53:22;;;;;;;7.30;1.70;;;15.20;87.80;;;;;;5026701;28;20052;-46
2022/10/16 09:55:53;;;;;;;10.77;2.10;;;15.20;89.30;;;;;;5026495;28;20925;-47
2022/10/16 09:58:23;;;;;;;11.82;1.58;;;15.30;77.00;;;;;;5026221;28;20048;-46
2022/10/16 10:00:54;;;;;;;10.60;1.75;;;15.40;78.70;;;;;;5025069;28;20045;-47
2022/10/16 10:03:34;;;;;;;12.68;2.22;;;15.40;76.80;;;;;;5029155;28;20128;-48
2022/10/16 10:06:07;;;;;;;14.02;2.55;;;15.70;66.60;;;;;;5027750;28;20498;-46
2022/10/16 10:08:33;;;;;;;11.60;2.72;;;15.70;66.10;;;;;;5027198;28;21117;-47
2022/10/16 10:10:58;;;;;;;16.65;2.88;;;15.70;67.30;;;;;;5027637;28;20044;-48
2022/10/16 10:13:26;;;;;;;8.85;1.65;;;15.80;68.80;;;;;;5027906;28;20228;-48
2022/10/16 10:15:53;;;;;;;11.80;2.05;;;15.80;67.40;;;;;;5026010;28;20037;-48
2022/10/16 10:18:21;;;;;;;13.02;2.20;;;15.90;65.10;;;;;;5025454;28;20083;-49
2022/10/16 10:21:00;;;;;;;13.18;2.00;;;15.90;57.60;;;;;;5027326;28;20038;-50
2022/10/16 10:23:28;;;;;;;11.93;2.30;;;16.00;29.90;;;;;;5023558;28;20051;-46
2022/10/16 10:26:10;;;;;;;10.85;1.83;;;15.70;41.00;;;;;;5026491;28;20041;-46
2022/10/16 10:29:12;;;;;;;15.73;2.22;;;16.10;40.80;;;;;;5023848;28;20140;-47
2022/10/16 10:31:50;;;;;;;12.38;2.33;;;16.10;12.60;;;;;;5021992;28;20056;-47
2022/10/16 10:35:13;;;;;;;14.00;2.33;;;16.10;21.90;;;;;;5025183;28;20037;-47
2022/10/16 10:37:59;;;;;;;15.07;2.80;;;16.00;4.90;;;;;;5048381;28;20086;-46
2022/10/16 10:40:39;;;;;;;9.73;1.90;;;16.00;1.00;;;;;;5048470;28;20056;-48
2022/10/16 10:43:20;;;;;;;15.73;2.72;;;16.10;15.60;;;;;;5032515;28;20086;-49
2022/10/16 10:45:48;;;;;;;20.75;2.97;;;15.70;1.00;;;;;;5023912;28;20045;-45
2022/10/16 10:48:34;;;;;;;12.82;2.35;;;15.70;8.30;;;;;;5027848;28;20077;-47
2022/10/16 10:51:25;;;;;;;11.18;2.13;;;15.60;22.30;;;;;;5025377;28;20124;-48
2022/10/16 10:54:14;;;;;;;12.30;2.10;;;15.70;1.00;;;;;;5022811;28;20048;-48
2022/10/16 10:56:55;;;;;;;14.60;2.60;;;15.40;1.00;;;;;;5024689;28;20049;-45
2022/10/16 10:59:55;;;;;;;19.48;2.70;;;15.50;1.00;;;;;;5025607;28;20051;-48
2022/10/16 11:02:37;;;;;;;13.48;2.28;;;15.50;1.00;;;;;;5025185;28;20045;-47
2022/10/16 11:05:08;;;;;;;11.70;1.98;;;15.50;4.20;;;;;;5024272;28;20048;-49
2022/10/16 11:07:39;;;;;;;17.08;2.97;;;15.50;1.00;;;;;;5022379;28;20862;-45
2022/10/16 11:10:18;;;;;;;14.32;2.15;;;15.60;1.00;;;;;;5024403;28;20460;-47
2022/10/16 11:13:32;;;;;;;12.70;2.08;;;15.60;1.00;;;;;;5020243;28;20041;-46
2022/10/16 11:16:03;;;;;;;12.55;2.55;;;15.60;1.00;;;;;;5037716;28;20140;-45
2022/10/16 11:19:13;;;;;;;9.83;1.77;;;15.80;1.00;;;;;;5024752;28;21311;-46
2022/10/16 11:21:59;;;;;;;13.50;2.30;;;15.70;1.00;;;;;;5024071;28;20408;-47
2022/10/16 11:24:35;;;;;;;14.02;2.35;;;15.70;1.00;;;;;;5026111;28;20402;-44
2022/10/16 11:27:07;;;;;;;13.73;2.53;;;15.60;1.00;;;;;;5024491;28;20158;-48
2022/10/16 11:29:40;;;;;;;8.43;2.33;;;15.50;1.00;;;;;;5024419;28;20053;-48
2022/10/16 11:32:22;;;;;;;16.05;2.33;;;15.60;1.00;;;;;;5024096;28;20042;-45
2022/10/16 11:34:53;;;;;;;11.82;2.90;;;15.60;99.90;;;;;;5026449;28;20048;-44
2022/10/16 11:37:24;;;;;;;13.25;1.98;;;15.60;99.90;;;;;;5027294;28;20085;-45
2022/10/16 11:39:52;;;;;;;12.55;2.22;;;15.80;1.00;;;;;;5023824;28;20801;-45
2022/10/16 11:42:46;;;;;;;10.93;1.88;;;16.00;1.00;;;;;;5027852;28;20063;-45
2022/10/16 11:45:18;;;;;;;14.18;2.13;;;16.40;99.90;;;;;;5028390;28;20057;-48
2022/10/16 11:47:51;;;;;;;14.43;2.30;;;16.30;99.90;;;;;;5025454;28;20116;-47
2022/10/16 11:50:26;;;;;;;13.55;2.10;;;16.70;99.90;;;;;;5023952;28;24139;-49
2022/10/16 11:53:24;;;;;;;13.18;2.30;;;16.50;75.40;;;;;;5026722;28;20223;-48
2022/10/16 11:55:50;;;;;;;15.20;2.50;;;16.20;99.90;;;;;;5026994;28;20068;-46
2022/10/16 11:58:20;;;;;;;15.30;2.97;;;16.20;99.90;;;;;;5027582;28;20151;-47
2022/10/16 12:01:05;;;;;;;14.00;2.47;;;16.10;99.90;;;;;;5020139;28;20080;-45
2022/10/16 12:03:46;;;;;;;17.17;2.58;;;16.10;99.90;;;;;;5023590;28;20508;-46
2022/10/16 12:06:42;;;;;;;17.10;2.45;;;16.10;99.90;;;;;;5026187;28;20041;-47
2022/10/16 12:09:18;;;;;;;17.05;2.60;;;16.30;99.90;;;;;;5025636;28;20344;-45
2022/10/16 12:11:44;;;;;;;15.40;2.85;;;16.40;99.90;;;;;;5025482;28;20052;-47
2022/10/16 12:14:12;;;;;;;18.75;2.38;;;16.50;99.90;;;;;;5025806;28;20037;-45
2022/10/16 12:16:50;;;;;;;14.00;2.42;;;16.50;1.00;;;;;;5026197;28;20319;-46
2022/10/16 12:19:20;;;;;;;17.25;2.40;;;16.70;99.90;;;;;;5026696;28;20045;-45
2022/10/16 12:21:46;;;;;;;16.50;2.95;;;16.70;1.00;;;;;;5023358;28;20037;-46
2022/10/16 12:24:35;;;;;;;10.85;1.98;;;16.70;1.00;;;;;;5023311;28;20041;-46
2022/10/16 12:27:02;;;;;;;16.98;2.42;;;16.70;99.90;;;;;;5024943;28;20145;-50
2022/10/16 12:29:32;;;;;;;16.92;2.25;;;16.60;99.90;;;;;;5024139;28;20295;-49
2022/10/16 12:31:58;;;;;;;11.38;1.83;;;16.40;1.00;;;;;;5022986;28;20505;-46
2022/10/16 12:34:43;;;;;;;15.02;2.33;;;16.60;1.00;;;;;;5022120;28;20768;-46
2022/10/16 12:37:38;;;;;;;15.00;2.88;;;16.30;1.00;;;;;;5021945;28;20045;-49
2022/10/16 12:40:23;;;;;;;10.57;2.03;;;16.60;1.00;;;;;;5019772;28;20049;-49
2022/10/16 12:42:49;;;;;;;14.27;2.58;;;16.20;1.00;;;;;;5022532;28;20381;-45
2022/10/16 12:45:31;;;;;;;18.17;2.38;;;16.50;99.90;;;;;;5026125;28;20030;-45
2022/10/16 12:47:58;;;;;;;14.15;2.75;;;16.20;99.90;;;;;;5028874;28;20975;-48
2022/10/16 12:50:32;;;;;;;13.18;2.40;;;16.10;99.90;;;;;;5027512;28;20102;-46
2022/10/16 12:53:00;;;;;;;14.82;2.50;;;16.20;99.90;;;;;;5025387;28;20044;-44
2022/10/16 12:55:30;;;;;;;11.10;3.08;;;16.20;99.90;;;;;;5028196;28;20038;-46
2022/10/16 12:58:21;;;;;;;14.00;2.47;;;16.00;99.90;;;;;;5027859;28;20054;-46
2022/10/16 13:00:57;;;;;;;12.93;2.15;;;15.90;99.90;;;;;;5025595;28;20068;-46
2022/10/16 13:03:37;;;;;;;10.45;2.20;;;15.90;99.90;;;;;;5027519;28;20045;-45
2022/10/16 13:06:27;;;;;;;11.30;2.45;;;16.10;99.90;;;;;;5024512;28;20652;-47